createdAt,value
2023-05-10T00:00:34.402Z,86.17
2023-05-10T00:01:34.410Z,86.16
2023-05-10T00:02:34.487Z,86.14
2023-05-10T00:03:34.461Z,86.08
2023-05-10T00:04:34.315Z,85.95
2023-05-10T00:05:34.343Z,85.64
2023-05-10T00:06:34.294Z,85.60
2023-05-10T00:07:34.287Z,85.58
2023-05-10T00:08:34.269Z,85.61
2023-05-10T00:09:34.262Z,85.64
2023-05-10T00:10:34.250Z,85.69
2023-05-10T00:11:34.232Z,85.79
2023-05-10T00:12:34.226Z,85.84
2023-05-10T00:13:34.214Z,85.89
2023-05-10T00:14:34.192Z,85.85
2023-05-10T00:15:34.173Z,85.87
2023-05-10T00:16:34.240Z,86.01
2023-05-10T00:17:34.191Z,86.13
2023-05-10T00:18:34.156Z,86.15
2023-05-10T00:19:34.146Z,86.19
2023-05-10T00:20:34.113Z,86.02
2023-05-10T00:21:34.102Z,85.96
2023-05-10T00:22:34.078Z,86.05
2023-05-10T00:23:34.062Z,86.03
2023-05-10T00:24:34.055Z,86.08
2023-05-10T00:25:34.033Z,86.04
2023-05-10T00:26:34.038Z,86.03
2023-05-10T00:27:34.038Z,85.84
2023-05-10T00:28:34.012Z,85.91
2023-05-10T00:29:33.994Z,85.79
2023-05-10T00:30:33.969Z,85.81
2023-05-10T00:31:34.108Z,85.80
2023-05-10T00:32:33.981Z,85.86
2023-05-10T00:33:33.927Z,85.89
2023-05-10T00:34:33.908Z,85.92
2023-05-10T00:35:33.937Z,85.94
2023-05-10T00:36:33.902Z,85.99
2023-05-10T00:37:33.883Z,85.90
2023-05-10T00:38:33.857Z,85.71
2023-05-10T00:39:33.846Z,85.78
2023-05-10T00:40:33.850Z,85.86
2023-05-10T00:41:33.833Z,85.84
2023-05-10T00:42:33.838Z,85.85
2023-05-10T00:43:33.793Z,85.79
2023-05-10T00:44:33.789Z,85.86
2023-05-10T00:45:33.767Z,85.94
2023-05-10T00:46:33.823Z,86.10
2023-05-10T00:47:33.773Z,86.13
2023-05-10T00:48:33.751Z,86.25
2023-05-10T00:49:33.739Z,86.21
2023-05-10T00:50:33.695Z,86.24
2023-05-10T00:51:33.700Z,86.19
2023-05-10T00:52:33.675Z,86.21
2023-05-10T00:53:33.679Z,86.19
2023-05-10T00:54:33.640Z,86.06
2023-05-10T00:55:33.628Z,86.07
2023-05-10T00:56:33.638Z,85.93
2023-05-10T00:57:33.616Z,85.95
2023-05-10T00:58:33.628Z,86.02
2023-05-10T00:59:33.568Z,86.03
2023-05-10T01:00:33.560Z,86.08
2023-05-10T01:01:33.560Z,86.02
2023-05-10T01:02:33.610Z,85.96
2023-05-10T01:03:33.608Z,85.84
2023-05-10T01:04:33.555Z,85.87
2023-05-10T01:05:33.491Z,85.87
2023-05-10T01:06:33.478Z,85.86
2023-05-10T01:07:33.468Z,85.74
2023-05-10T01:08:33.483Z,85.70
2023-05-10T01:09:33.460Z,85.77
2023-05-10T01:10:33.430Z,85.79
2023-05-10T01:11:33.412Z,85.62
2023-05-10T01:12:33.516Z,85.63
2023-05-10T01:13:33.399Z,85.70
2023-05-10T01:14:33.384Z,85.65
2023-05-10T01:15:33.390Z,85.59
2023-05-10T01:16:33.452Z,85.48
2023-05-10T01:17:33.474Z,85.35
2023-05-10T01:18:33.345Z,85.47
2023-05-10T01:19:33.328Z,85.45
2023-05-10T01:20:33.300Z,85.43
2023-05-10T01:21:33.304Z,85.40
2023-05-10T01:22:33.263Z,85.47
2023-05-10T01:23:33.385Z,85.47
2023-05-10T01:24:33.256Z,85.35
2023-05-10T01:25:33.265Z,85.29
2023-05-10T01:26:33.233Z,85.16
2023-05-10T01:27:33.199Z,84.97
2023-05-10T01:28:33.179Z,84.92
2023-05-10T01:29:33.218Z,85.07
2023-05-10T01:30:33.176Z,85.09
2023-05-10T01:31:33.264Z,85.23
2023-05-10T01:32:33.197Z,85.34
2023-05-10T01:33:33.218Z,85.43
2023-05-10T01:34:33.123Z,85.52
2023-05-10T01:35:33.121Z,85.60
2023-05-10T01:36:33.078Z,85.40
2023-05-10T01:37:33.056Z,85.37
2023-05-10T01:38:33.052Z,85.44
2023-05-10T01:39:33.036Z,85.40
2023-05-10T01:40:33.048Z,85.30
2023-05-10T01:41:33.005Z,85.26
2023-05-10T01:42:32.983Z,85.24
2023-05-10T01:43:32.972Z,85.18
2023-05-10T01:44:32.956Z,85.36
2023-05-10T01:45:32.959Z,85.42
2023-05-10T01:46:32.965Z,85.36
2023-05-10T01:47:32.954Z,85.31
2023-05-10T01:48:32.898Z,85.35
2023-05-10T01:49:32.936Z,85.31
2023-05-10T01:50:32.891Z,85.28
2023-05-10T01:51:32.886Z,85.33
2023-05-10T01:52:32.842Z,85.33
2023-05-10T01:53:32.835Z,85.35
2023-05-10T01:54:32.825Z,85.40
2023-05-10T01:55:32.843Z,85.43
2023-05-10T01:56:32.814Z,85.40
2023-05-10T01:57:32.818Z,85.49
2023-05-10T01:58:32.763Z,85.64
2023-05-10T01:59:32.773Z,85.79
2023-05-10T02:00:32.793Z,85.67
2023-05-10T02:01:32.735Z,85.67
2023-05-10T02:02:32.717Z,85.71
2023-05-10T02:03:32.731Z,85.61
2023-05-10T02:04:32.685Z,85.54
2023-05-10T02:05:32.675Z,85.51
2023-05-10T02:06:32.672Z,85.58
2023-05-10T02:07:32.639Z,85.68
2023-05-10T02:08:32.624Z,85.60
2023-05-10T02:09:32.645Z,85.55
2023-05-10T02:10:32.623Z,85.46
2023-05-10T02:11:32.609Z,85.55
2023-05-10T02:12:32.575Z,85.67
2023-05-10T02:13:32.629Z,85.78
2023-05-10T02:14:32.541Z,85.76
2023-05-10T02:15:32.544Z,85.53
2023-05-10T02:16:32.545Z,85.57
2023-05-10T02:17:32.526Z,85.61
2023-05-10T02:18:32.518Z,85.71
2023-05-10T02:19:32.468Z,85.82
2023-05-10T02:20:32.489Z,85.81
2023-05-10T02:21:32.456Z,85.77
2023-05-10T02:22:32.458Z,85.85
2023-05-10T02:23:32.420Z,85.86
2023-05-10T02:24:32.427Z,85.75
2023-05-10T02:25:32.422Z,85.75
2023-05-10T02:26:32.388Z,85.70
2023-05-10T02:27:32.379Z,85.57
2023-05-10T02:28:32.341Z,85.59
2023-05-10T02:29:32.366Z,85.62
2023-05-10T02:30:32.346Z,85.67
2023-05-10T02:31:32.331Z,85.61
2023-05-10T02:32:32.372Z,85.52
2023-05-10T02:33:32.279Z,85.46
2023-05-10T02:34:32.264Z,85.52
2023-05-10T02:35:32.266Z,85.57
2023-05-10T02:36:32.242Z,85.59
2023-05-10T02:37:32.261Z,85.58
2023-05-10T02:38:32.214Z,85.60
2023-05-10T02:39:32.198Z,85.80
2023-05-10T02:40:32.180Z,85.85
2023-05-10T02:41:32.176Z,85.89
2023-05-10T02:42:32.172Z,85.80
2023-05-10T02:43:32.169Z,85.83
2023-05-10T02:44:32.216Z,85.80
2023-05-10T02:45:32.124Z,85.78
2023-05-10T02:46:32.296Z,85.81
2023-05-10T02:47:32.119Z,85.75
2023-05-10T02:48:32.070Z,85.66
2023-05-10T02:49:32.065Z,85.61
2023-05-10T02:50:32.080Z,85.65
2023-05-10T02:51:32.036Z,85.63
2023-05-10T02:52:32.054Z,85.56
2023-05-10T02:53:32.010Z,85.49
2023-05-10T02:54:31.998Z,85.29
2023-05-10T02:55:32.012Z,85.03
2023-05-10T02:56:31.995Z,85.08
2023-05-10T02:57:31.982Z,84.90
2023-05-10T02:58:31.934Z,84.82
2023-05-10T02:59:31.975Z,85.02
2023-05-10T03:00:31.948Z,85.07
2023-05-10T03:01:31.956Z,85.14
2023-05-10T03:02:32.179Z,85.18
2023-05-10T03:03:31.903Z,85.23
2023-05-10T03:04:31.933Z,85.27
2023-05-10T03:05:31.873Z,85.30
2023-05-10T03:06:31.832Z,85.25
2023-05-10T03:07:31.852Z,85.36
2023-05-10T03:08:31.804Z,85.23
2023-05-10T03:09:31.789Z,85.23
2023-05-10T03:10:31.792Z,85.18
2023-05-10T03:11:31.788Z,85.15
2023-05-10T03:12:31.761Z,85.10
2023-05-10T03:13:31.853Z,85.06
2023-05-10T03:14:31.725Z,85.16
2023-05-10T03:15:31.719Z,85.15
2023-05-10T03:16:31.776Z,85.22
2023-05-10T03:17:31.764Z,85.23
2023-05-10T03:18:31.701Z,85.22
2023-05-10T03:19:31.654Z,85.16
2023-05-10T03:20:31.658Z,85.19
2023-05-10T03:21:31.630Z,85.10
2023-05-10T03:22:31.672Z,85.13
2023-05-10T03:23:31.606Z,85.29
2023-05-10T03:24:31.612Z,85.30
2023-05-10T03:25:31.579Z,85.30
2023-05-10T03:26:31.586Z,85.17
2023-05-10T03:27:31.580Z,85.20
2023-05-10T03:28:31.529Z,85.31
2023-05-10T03:29:31.530Z,85.36
2023-05-10T03:30:31.525Z,85.24
2023-05-10T03:31:31.553Z,85.25
2023-05-10T03:32:31.563Z,85.37
2023-05-10T03:33:31.466Z,85.45
2023-05-10T03:34:31.457Z,85.53
2023-05-10T03:35:31.457Z,85.56
2023-05-10T03:36:31.434Z,85.32
2023-05-10T03:37:31.404Z,85.29
2023-05-10T03:38:31.401Z,85.42
2023-05-10T03:39:31.394Z,85.53
2023-05-10T03:40:31.385Z,85.65
2023-05-10T03:41:31.365Z,85.63
2023-05-10T03:42:31.355Z,85.68
2023-05-10T03:43:31.355Z,85.75
2023-05-10T03:44:31.348Z,85.89
2023-05-10T03:45:31.303Z,85.83
2023-05-10T03:46:31.306Z,85.85
2023-05-10T03:47:31.341Z,85.93
2023-05-10T03:48:31.271Z,85.97
2023-05-10T03:49:31.245Z,85.92
2023-05-10T03:50:31.233Z,85.95
2023-05-10T03:51:31.217Z,85.97
2023-05-10T03:52:31.208Z,85.96
2023-05-10T03:53:31.204Z,85.97
2023-05-10T03:54:31.190Z,85.98
2023-05-10T03:55:31.162Z,86.07
2023-05-10T03:56:31.185Z,86.11
2023-05-10T03:57:31.145Z,86.15
2023-05-10T03:58:31.136Z,86.21
2023-05-10T03:59:31.120Z,86.28
2023-05-10T04:00:31.223Z,86.31
2023-05-10T04:01:31.103Z,86.32
2023-05-10T04:02:31.206Z,86.34
2023-05-10T04:03:31.154Z,86.33
2023-05-10T04:04:31.048Z,86.25
2023-05-10T04:05:31.049Z,86.15
2023-05-10T04:06:31.055Z,86.22
2023-05-10T04:07:31.003Z,86.19
2023-05-10T04:08:31.025Z,86.00
2023-05-10T04:09:30.981Z,85.98
2023-05-10T04:10:30.969Z,86.06
2023-05-10T04:11:30.974Z,86.12
2023-05-10T04:12:30.935Z,86.04
2023-05-10T04:13:30.929Z,86.07
2023-05-10T04:14:30.932Z,85.98
2023-05-10T04:15:30.905Z,85.97
2023-05-10T04:16:30.909Z,86.07
2023-05-10T04:17:30.961Z,86.09
2023-05-10T04:18:30.894Z,86.15
2023-05-10T04:19:30.842Z,86.16
2023-05-10T04:20:30.847Z,86.23
2023-05-10T04:21:30.812Z,86.21
2023-05-10T04:22:30.811Z,86.22
2023-05-10T04:23:30.823Z,86.27
2023-05-10T04:24:30.799Z,86.33
2023-05-10T04:25:30.751Z,86.38
2023-05-10T04:26:30.766Z,86.33
2023-05-10T04:27:30.729Z,86.24
2023-05-10T04:28:30.724Z,86.19
2023-05-10T04:29:30.728Z,86.21
2023-05-10T04:30:30.741Z,86.29
2023-05-10T04:31:30.702Z,86.13
2023-05-10T04:32:30.698Z,86.08
2023-05-10T04:33:30.706Z,86.15
2023-05-10T04:34:30.635Z,86.08
2023-05-10T04:35:30.645Z,86.05
2023-05-10T04:36:30.638Z,86.11
2023-05-10T04:37:30.589Z,86.20
2023-05-10T04:38:30.707Z,86.18
2023-05-10T04:39:30.589Z,86.10
2023-05-10T04:40:30.571Z,86.12
2023-05-10T04:41:30.549Z,85.85
2023-05-10T04:42:30.549Z,85.77
2023-05-10T04:43:30.546Z,85.75
2023-05-10T04:44:30.523Z,85.79
2023-05-10T04:45:30.495Z,85.83
2023-05-10T04:46:30.532Z,85.62
2023-05-10T04:47:30.480Z,85.52
2023-05-10T04:48:30.452Z,85.63
2023-05-10T04:49:30.514Z,85.60
2023-05-10T04:50:30.416Z,85.35
2023-05-10T04:51:30.394Z,85.32
2023-05-10T04:52:30.419Z,85.31
2023-05-10T04:53:30.369Z,85.14
2023-05-10T04:54:30.376Z,85.34
2023-05-10T04:55:30.349Z,85.42
2023-05-10T04:56:30.326Z,85.53
2023-05-10T04:57:30.319Z,85.55
2023-05-10T04:58:30.296Z,85.54
2023-05-10T04:59:30.307Z,85.70
2023-05-10T05:00:30.276Z,85.77
2023-05-10T05:01:30.310Z,85.63
2023-05-10T05:02:30.298Z,85.38
2023-05-10T05:03:30.309Z,85.46
2023-05-10T05:04:30.244Z,85.67
2023-05-10T05:05:30.215Z,85.88
2023-05-10T05:06:30.222Z,85.99
2023-05-10T05:07:30.318Z,86.01
2023-05-10T05:08:30.190Z,85.91
2023-05-10T05:09:30.189Z,85.96
2023-05-10T05:10:30.163Z,85.85
2023-05-10T05:11:30.177Z,85.74
2023-05-10T05:12:30.124Z,85.86
2023-05-10T05:13:30.277Z,85.92
2023-05-10T05:14:30.111Z,85.89
2023-05-10T05:15:30.075Z,85.76
2023-05-10T05:16:30.120Z,85.80
2023-05-10T05:17:30.110Z,85.98
2023-05-10T05:18:30.036Z,86.21
2023-05-10T05:19:30.075Z,86.31
2023-05-10T05:20:30.054Z,86.48
2023-05-10T05:21:30.025Z,86.66
2023-05-10T05:22:29.978Z,86.71
2023-05-10T05:23:29.977Z,86.77
2023-05-10T05:24:30.005Z,86.69
2023-05-10T05:25:29.953Z,86.75
2023-05-10T05:26:29.918Z,86.77
2023-05-10T05:27:29.908Z,86.69
2023-05-10T05:28:29.948Z,86.84
2023-05-10T05:29:29.883Z,86.89
2023-05-10T05:30:29.886Z,86.92
2023-05-10T05:31:29.885Z,86.93
2023-05-10T05:32:29.886Z,86.95
2023-05-10T05:33:29.816Z,86.98
2023-05-10T05:34:29.828Z,87.00
2023-05-10T05:35:29.793Z,87.14
2023-05-10T05:36:29.798Z,87.30
2023-05-10T05:37:29.792Z,87.33
2023-05-10T05:38:29.766Z,87.33
2023-05-10T05:39:29.736Z,87.07
2023-05-10T05:40:29.745Z,87.10
2023-05-10T05:41:29.717Z,87.31
2023-05-10T05:42:29.699Z,87.15
2023-05-10T05:43:29.681Z,87.16
2023-05-10T05:44:29.769Z,87.16
2023-05-10T05:45:29.687Z,87.16
2023-05-10T05:46:30.047Z,87.20
2023-05-10T05:47:29.693Z,87.33
2023-05-10T05:48:29.604Z,87.48
2023-05-10T05:49:29.606Z,87.59
2023-05-10T05:50:29.626Z,87.74
2023-05-10T05:51:29.723Z,87.91
2023-05-10T05:52:29.564Z,88.03
2023-05-10T05:53:29.551Z,88.11
2023-05-10T05:54:29.556Z,88.11
2023-05-10T05:55:29.555Z,88.13
2023-05-10T05:56:29.537Z,88.18
2023-05-10T05:57:29.569Z,88.22
2023-05-10T05:58:29.490Z,88.30
2023-05-10T05:59:29.496Z,88.40
2023-05-10T06:00:29.469Z,88.50
2023-05-10T06:01:29.531Z,88.60
2023-05-10T06:02:29.528Z,88.52
2023-05-10T06:03:29.531Z,88.51
2023-05-10T06:04:29.684Z,88.54
2023-05-10T06:05:29.389Z,88.51
2023-05-10T06:06:29.380Z,88.55
2023-05-10T06:07:29.369Z,88.55
2023-05-10T06:08:29.373Z,88.61
2023-05-10T06:09:29.360Z,88.62
2023-05-10T06:10:29.353Z,88.70
2023-05-10T06:11:29.326Z,88.72
2023-05-10T06:12:29.310Z,88.71
2023-05-10T06:13:29.387Z,88.70
2023-05-10T06:14:29.299Z,88.72
2023-05-10T06:15:29.284Z,88.81
2023-05-10T06:16:29.371Z,88.85
2023-05-10T06:17:29.257Z,88.89
2023-05-10T06:18:29.283Z,88.88
2023-05-10T06:19:29.242Z,88.91
2023-05-10T06:20:29.219Z,88.94
2023-05-10T06:21:29.199Z,88.99
2023-05-10T06:22:29.184Z,89.03
2023-05-10T06:23:29.160Z,89.07
2023-05-10T06:24:29.158Z,88.96
2023-05-10T06:25:29.149Z,88.96
2023-05-10T06:26:29.121Z,88.94
2023-05-10T06:27:29.129Z,88.93
2023-05-10T06:28:29.106Z,88.93
2023-05-10T06:29:29.077Z,88.90
2023-05-10T06:30:29.104Z,88.91
2023-05-10T06:31:29.072Z,88.94
2023-05-10T06:32:29.234Z,88.96
2023-05-10T06:33:29.012Z,88.97
2023-05-10T06:34:29.035Z,88.97
2023-05-10T06:35:29.021Z,88.98
2023-05-10T06:36:29.007Z,88.94
2023-05-10T06:37:35.565Z,88.80
2023-05-10T06:38:28.948Z,88.72
2023-05-10T06:39:28.967Z,88.71
2023-05-10T06:40:28.947Z,88.65
2023-05-10T06:41:28.915Z,88.62
2023-05-10T06:42:28.901Z,88.60
2023-05-10T06:43:28.881Z,88.57
2023-05-10T06:44:28.867Z,88.61
2023-05-10T06:45:28.869Z,88.60
2023-05-10T06:46:28.915Z,88.64
2023-05-10T06:47:28.886Z,88.62
2023-05-10T06:48:28.814Z,88.63
2023-05-10T06:49:28.792Z,88.62
2023-05-10T06:50:28.788Z,88.56
2023-05-10T06:51:28.773Z,88.53
2023-05-10T06:52:28.754Z,88.38
2023-05-10T06:53:28.746Z,88.32
2023-05-10T06:54:28.749Z,88.29
2023-05-10T06:55:28.706Z,88.10
2023-05-10T06:56:28.710Z,87.84
2023-05-10T06:57:31.580Z,87.75
2023-05-10T06:58:28.682Z,87.77
2023-05-10T06:59:28.672Z,87.71
2023-05-10T07:00:28.684Z,87.56
2023-05-10T07:01:28.650Z,87.39
2023-05-10T07:02:28.704Z,87.31
2023-05-10T07:03:28.623Z,86.83
2023-05-10T07:04:28.627Z,86.58
2023-05-10T07:05:28.787Z,86.73
2023-05-10T07:06:33.442Z,86.90
2023-05-10T07:07:28.597Z,86.62
2023-05-10T07:08:28.566Z,86.61
2023-05-10T07:09:28.505Z,86.71
2023-05-10T07:10:28.550Z,86.76
2023-05-10T07:11:28.498Z,86.57
2023-05-10T07:12:28.511Z,86.48
2023-05-10T07:13:28.502Z,86.37
2023-05-10T07:14:28.447Z,86.36
2023-05-10T07:15:28.457Z,86.45
2023-05-10T07:16:28.471Z,86.42
2023-05-10T07:17:28.427Z,86.53
2023-05-10T07:18:28.398Z,86.62
2023-05-10T07:19:28.363Z,86.60
2023-05-10T07:20:28.357Z,86.58
2023-05-10T07:21:28.379Z,86.39
2023-05-10T07:22:28.322Z,85.97
2023-05-10T07:23:28.332Z,85.25
2023-05-10T07:24:28.342Z,84.83
2023-05-10T07:25:28.292Z,85.05
2023-05-10T07:26:28.304Z,85.10
2023-05-10T07:27:28.274Z,84.08
2023-05-10T07:28:28.245Z,83.82
2023-05-10T07:29:28.267Z,83.90
2023-05-10T07:30:28.326Z,83.81
2023-05-10T07:31:28.221Z,83.87
2023-05-10T07:32:28.274Z,83.30
2023-05-10T07:33:28.193Z,83.03
2023-05-10T07:34:28.193Z,83.50
2023-05-10T07:35:28.147Z,83.92
2023-05-10T07:36:28.131Z,84.23
2023-05-10T07:37:28.137Z,84.60
2023-05-10T07:38:28.109Z,84.85
2023-05-10T07:39:28.432Z,84.95
2023-05-10T07:40:28.114Z,84.89
2023-05-10T07:41:28.059Z,84.57
2023-05-10T07:42:28.097Z,84.39
2023-05-10T07:43:28.044Z,84.30
2023-05-10T07:44:28.052Z,84.40
2023-05-10T07:45:28.137Z,83.90
2023-05-10T07:46:28.081Z,83.51
2023-05-10T07:47:28.065Z,83.12
2023-05-10T07:48:27.962Z,83.02
2023-05-10T07:49:27.944Z,83.14
2023-05-10T07:50:27.948Z,83.24
2023-05-10T07:51:27.916Z,83.49
2023-05-10T07:52:27.932Z,83.41
2023-05-10T07:53:27.900Z,83.43
2023-05-10T07:54:27.880Z,83.48
2023-05-10T07:55:27.945Z,83.46
2023-05-10T07:56:27.859Z,83.30
2023-05-10T07:57:27.826Z,83.47
2023-05-10T07:58:28.253Z,83.65
2023-05-10T07:59:27.828Z,83.86
2023-05-10T08:00:27.800Z,83.54
2023-05-10T08:01:27.803Z,83.07
2023-05-10T08:02:27.804Z,82.55
2023-05-10T08:03:27.824Z,82.45
2023-05-10T08:04:27.788Z,82.37
2023-05-10T08:05:27.745Z,81.62
2023-05-10T08:06:27.714Z,81.57
2023-05-10T08:07:27.690Z,81.61
2023-05-10T08:08:27.717Z,81.96
2023-05-10T08:09:27.674Z,82.20
2023-05-10T08:10:27.654Z,81.59
2023-05-10T08:11:27.638Z,81.07
2023-05-10T08:12:27.616Z,81.53
2023-05-10T08:13:27.617Z,81.81
2023-05-10T08:14:27.609Z,81.88
2023-05-10T08:15:27.596Z,82.33
2023-05-10T08:16:27.693Z,81.99
2023-05-10T08:17:27.576Z,81.09
2023-05-10T08:18:27.614Z,80.50
2023-05-10T08:19:27.552Z,80.74
2023-05-10T08:20:27.559Z,80.39
2023-05-10T08:21:27.534Z,80.18
2023-05-10T08:22:27.490Z,80.19
2023-05-10T08:23:27.476Z,80.75
2023-05-10T08:24:27.453Z,81.21
2023-05-10T08:25:27.435Z,81.62
2023-05-10T08:26:27.433Z,81.34
2023-05-10T08:27:27.429Z,81.06
2023-05-10T08:28:27.400Z,81.06
2023-05-10T08:29:28.546Z,81.16
2023-05-10T08:30:27.368Z,81.08
2023-05-10T08:31:27.383Z,81.53
2023-05-10T08:32:27.404Z,81.81
2023-05-10T08:33:27.331Z,82.01
2023-05-10T08:34:27.609Z,82.13
2023-05-10T08:35:27.321Z,81.73
2023-05-10T08:36:27.343Z,81.83
2023-05-10T08:37:27.293Z,81.90
2023-05-10T08:38:27.266Z,82.15
2023-05-10T08:39:30.781Z,82.08
2023-05-10T08:40:27.260Z,81.82
2023-05-10T08:41:27.249Z,81.90
2023-05-10T08:42:27.201Z,82.15
2023-05-10T08:43:27.196Z,82.22
2023-05-10T08:44:27.199Z,81.96
2023-05-10T08:45:27.160Z,81.96
2023-05-10T08:46:27.158Z,81.94
2023-05-10T08:47:27.153Z,81.77
2023-05-10T08:48:27.130Z,81.55
2023-05-10T08:49:27.154Z,81.50
2023-05-10T08:50:27.853Z,81.73
2023-05-10T08:51:27.086Z,81.81
2023-05-10T08:52:27.067Z,81.82
2023-05-10T08:53:27.058Z,81.58
2023-05-10T08:54:27.057Z,81.35
2023-05-10T08:55:27.042Z,81.58
2023-05-10T08:56:27.013Z,81.99
2023-05-10T08:57:27.007Z,82.21
2023-05-10T08:58:27.002Z,82.19
2023-05-10T08:59:26.998Z,82.13
2023-05-10T09:00:26.968Z,82.23
2023-05-10T09:01:27.021Z,82.19
2023-05-10T09:02:27.002Z,82.12
2023-05-10T09:03:26.928Z,82.22
2023-05-10T09:04:27.073Z,81.95
2023-05-10T09:05:26.950Z,81.94
2023-05-10T09:06:26.881Z,81.61
2023-05-10T09:07:26.870Z,81.63
2023-05-10T09:08:26.857Z,81.27
2023-05-10T09:09:26.862Z,81.29
2023-05-10T09:10:26.856Z,81.82
2023-05-10T09:11:26.854Z,81.69
2023-05-10T09:12:26.798Z,81.65
2023-05-10T09:13:26.792Z,81.61
2023-05-10T09:14:26.808Z,81.15
2023-05-10T09:15:27.023Z,80.83
2023-05-10T09:16:26.791Z,80.89
2023-05-10T09:17:26.860Z,79.59
2023-05-10T09:18:28.026Z,79.79
2023-05-10T09:19:26.711Z,79.93
2023-05-10T09:20:26.706Z,79.65
2023-05-10T09:21:26.747Z,78.88
2023-05-10T09:22:26.683Z,78.60
2023-05-10T09:23:26.717Z,79.30
2023-05-10T09:24:26.662Z,79.21
2023-05-10T09:25:26.671Z,79.16
2023-05-10T09:26:26.627Z,79.42
2023-05-10T09:27:26.604Z,78.88
2023-05-10T09:28:26.603Z,79.04
2023-05-10T09:29:26.599Z,78.72
2023-05-10T09:30:26.596Z,78.41
2023-05-10T09:31:26.654Z,78.02
2023-05-10T09:32:26.590Z,78.25
2023-05-10T09:33:26.528Z,77.74
2023-05-10T09:34:26.525Z,77.13
2023-05-10T09:35:29.349Z,76.98
2023-05-10T09:36:26.501Z,76.81
2023-05-10T09:37:26.462Z,77.04
2023-05-10T09:38:26.445Z,76.18
2023-05-10T09:39:26.433Z,76.14
2023-05-10T09:40:26.438Z,75.64
2023-05-10T09:41:26.423Z,75.66
2023-05-10T09:42:26.404Z,75.96
2023-05-10T09:43:26.394Z,76.27
2023-05-10T09:44:26.377Z,76.61
2023-05-10T09:45:26.375Z,75.88
2023-05-10T09:46:26.369Z,76.12
2023-05-10T09:47:26.356Z,75.46
2023-05-10T09:48:26.317Z,75.28
2023-05-10T09:49:26.323Z,76.15
2023-05-10T09:50:26.296Z,76.30
2023-05-10T09:51:26.277Z,76.09
2023-05-10T09:52:26.316Z,76.26
2023-05-10T09:53:26.260Z,76.25
2023-05-10T09:54:26.274Z,76.43
2023-05-10T09:55:26.275Z,75.30
2023-05-10T09:56:26.244Z,75.65
2023-05-10T09:57:26.218Z,74.82
2023-05-10T09:58:26.191Z,74.78
2023-05-10T09:59:26.191Z,74.59
2023-05-10T10:00:26.179Z,74.01
2023-05-10T10:01:26.195Z,73.96
2023-05-10T10:02:26.164Z,73.58
2023-05-10T10:03:26.934Z,74.46
2023-05-10T10:04:26.133Z,74.70
2023-05-10T10:05:26.127Z,74.08
2023-05-10T10:06:29.994Z,73.67
2023-05-10T10:07:26.077Z,73.27
2023-05-10T10:08:26.072Z,73.82
2023-05-10T10:09:26.066Z,73.53
2023-05-10T10:10:26.026Z,72.87
2023-05-10T10:11:26.024Z,73.63
2023-05-10T10:12:25.985Z,74.22
2023-05-10T10:13:26.000Z,74.58
2023-05-10T10:14:26.030Z,74.29
2023-05-10T10:15:25.965Z,74.50
2023-05-10T10:16:26.066Z,74.31
2023-05-10T10:17:25.964Z,73.18
2023-05-10T10:18:25.950Z,73.17
2023-05-10T10:19:25.899Z,73.23
2023-05-10T10:20:25.899Z,73.60
2023-05-10T10:21:25.901Z,73.61
2023-05-10T10:22:25.847Z,73.99
2023-05-10T10:23:25.848Z,74.06
2023-05-10T10:24:25.848Z,75.78
2023-05-10T10:25:27.779Z,76.75
2023-05-10T10:26:25.977Z,77.03
2023-05-10T10:27:25.859Z,76.50
2023-05-10T10:28:27.549Z,76.68
2023-05-10T10:29:25.796Z,76.38
2023-05-10T10:30:25.744Z,76.69
2023-05-10T10:31:25.772Z,76.40
2023-05-10T10:32:25.729Z,75.96
2023-05-10T10:33:28.803Z,76.72
2023-05-10T10:34:25.677Z,76.79
2023-05-10T10:35:25.678Z,77.01
2023-05-10T10:36:25.675Z,77.12
2023-05-10T10:37:25.647Z,76.62
2023-05-10T10:38:25.637Z,75.60
2023-05-10T10:39:25.632Z,75.44
2023-05-10T10:40:25.607Z,76.38
2023-05-10T10:41:25.600Z,76.53
2023-05-10T10:42:25.585Z,75.98
2023-05-10T10:43:25.588Z,75.26
2023-05-10T10:44:25.545Z,76.03
2023-05-10T10:45:25.547Z,75.78
2023-05-10T10:46:25.550Z,75.81
2023-05-10T10:47:25.627Z,76.09
2023-05-10T10:48:25.599Z,75.29
2023-05-10T10:49:25.481Z,76.04
2023-05-10T10:50:25.461Z,76.34
2023-05-10T10:51:25.458Z,76.09
2023-05-10T10:52:25.448Z,76.19
2023-05-10T10:53:25.481Z,75.65
2023-05-10T10:54:25.410Z,76.22
2023-05-10T10:55:25.394Z,76.12
2023-05-10T10:56:25.381Z,76.60
2023-05-10T10:57:25.372Z,77.38
2023-05-10T10:58:25.364Z,77.57
2023-05-10T10:59:25.345Z,78.97
2023-05-10T11:00:25.426Z,79.60
2023-05-10T11:01:25.420Z,81.09
2023-05-10T11:02:25.375Z,81.72
2023-05-10T11:03:25.300Z,82.30
2023-05-10T11:04:25.309Z,82.98
2023-05-10T11:05:25.280Z,83.65
2023-05-10T11:06:25.229Z,84.32
2023-05-10T11:07:25.248Z,84.84
2023-05-10T11:08:25.211Z,85.17
2023-05-10T11:09:25.204Z,85.38
2023-05-10T11:10:25.185Z,85.38
2023-05-10T11:11:25.200Z,85.48
2023-05-10T11:12:25.173Z,85.80
2023-05-10T11:13:25.144Z,85.93
2023-05-10T11:14:25.144Z,86.20
2023-05-10T11:15:25.107Z,86.56
2023-05-10T11:16:25.224Z,86.72
2023-05-10T11:17:25.261Z,86.90
2023-05-10T11:18:25.100Z,86.98
2023-05-10T11:19:25.057Z,87.16
2023-05-10T11:20:25.052Z,87.27
2023-05-10T11:21:25.043Z,87.48
2023-05-10T11:22:25.036Z,87.56
2023-05-10T11:23:25.008Z,87.69
2023-05-10T11:24:24.974Z,87.86
2023-05-10T11:25:24.981Z,88.02
2023-05-10T11:26:25.016Z,88.13
2023-05-10T11:27:24.955Z,88.27
2023-05-10T11:28:24.969Z,88.35
2023-05-10T11:29:24.926Z,88.41
2023-05-10T11:30:24.917Z,88.46
2023-05-10T11:31:25.070Z,88.45
2023-05-10T11:32:24.908Z,88.48
2023-05-10T11:33:24.896Z,88.50
2023-05-10T11:34:24.865Z,88.51
2023-05-10T11:35:24.852Z,88.57
2023-05-10T11:36:24.849Z,88.63
2023-05-10T11:37:24.814Z,88.74
2023-05-10T11:38:24.819Z,88.86
2023-05-10T11:39:24.826Z,88.91
2023-05-10T11:40:24.809Z,88.96
2023-05-10T11:41:24.781Z,89.02
2023-05-10T11:42:24.768Z,89.06
2023-05-10T11:43:24.760Z,89.08
2023-05-10T11:44:24.736Z,89.05
2023-05-10T11:45:24.764Z,89.09
2023-05-10T11:46:24.797Z,89.14
2023-05-10T11:47:24.694Z,89.23
2023-05-10T11:48:24.726Z,89.25
2023-05-10T11:49:24.694Z,89.22
2023-05-10T11:50:24.694Z,89.23
2023-05-10T11:51:24.645Z,89.21
2023-05-10T11:52:24.625Z,89.17
2023-05-10T11:53:25.892Z,89.20
2023-05-10T11:54:24.600Z,89.25
2023-05-10T11:55:24.624Z,89.30
2023-05-10T11:56:24.761Z,89.33
2023-05-10T11:57:24.545Z,89.31
2023-05-10T11:58:24.557Z,89.33
2023-05-10T11:59:24.531Z,89.33
2023-05-10T12:00:24.530Z,89.30
2023-05-10T12:01:24.506Z,89.32
2023-05-10T12:02:24.531Z,89.37
2023-05-10T12:03:24.630Z,89.39
2023-05-10T12:04:24.516Z,89.45
2023-05-10T12:05:24.461Z,89.37
2023-05-10T12:06:24.472Z,89.38
2023-05-10T12:07:24.419Z,89.42
2023-05-10T12:08:24.417Z,89.45
2023-05-10T12:10:24.424Z,89.57
2023-05-10T12:11:24.360Z,89.63
2023-05-10T12:12:24.350Z,89.67
2023-05-10T12:13:24.352Z,89.74
2023-05-10T12:14:24.332Z,89.78
2023-05-10T12:15:24.333Z,89.70
2023-05-10T12:16:24.400Z,89.72
2023-05-10T12:17:24.360Z,89.72
2023-05-10T12:18:24.285Z,89.63
2023-05-10T12:19:24.284Z,89.58
2023-05-10T12:20:24.271Z,89.48
2023-05-10T12:21:24.264Z,89.47
2023-05-10T12:22:24.240Z,89.56
2023-05-10T12:23:24.225Z,89.59
2023-05-10T12:24:24.202Z,89.66
2023-05-10T12:25:24.242Z,89.69
2023-05-10T12:26:25.142Z,89.75
2023-05-10T12:27:24.189Z,89.84
2023-05-10T12:28:24.136Z,89.88
2023-05-10T12:29:24.151Z,89.93
2023-05-10T12:30:24.121Z,89.93
2023-05-10T12:31:24.150Z,89.99
2023-05-10T12:32:24.108Z,90.04
2023-05-10T12:33:24.111Z,90.11
2023-05-10T12:34:24.096Z,90.14
2023-05-10T12:35:24.060Z,90.13
2023-05-10T12:36:24.053Z,90.17
2023-05-10T12:37:24.025Z,90.21
2023-05-10T12:38:24.010Z,90.25
2023-05-10T12:39:24.026Z,90.28
2023-05-10T12:40:24.009Z,90.32
2023-05-10T12:41:24.050Z,90.32
2023-05-10T12:42:23.956Z,90.29
2023-05-10T12:43:23.939Z,90.34
2023-05-10T12:44:23.952Z,90.37
2023-05-10T12:45:23.924Z,90.38
2023-05-10T12:46:24.052Z,90.42
2023-05-10T12:47:23.990Z,90.43
2023-05-10T12:48:23.907Z,90.42
2023-05-10T12:49:23.879Z,90.41
2023-05-10T12:50:23.879Z,90.40
2023-05-10T12:51:23.888Z,90.35
2023-05-10T12:52:23.833Z,90.31
2023-05-10T12:53:23.817Z,90.32